createdAt,value
2017-06-09T00:00:31.783Z,17.23
2017-06-09T00:03:04.167Z,17.22
2017-06-09T00:05:36.564Z,17.19
2017-06-09T00:08:08.940Z,17.20
2017-06-09T00:10:41.322Z,17.20
2017-06-09T00:13:13.713Z,17.31
2017-06-09T00:15:46.247Z,17.22
2017-06-09T00:18:18.736Z,17.23
2017-06-09T00:20:51.121Z,17.27
2017-06-09T00:23:23.717Z,17.18
2017-06-09T00:25:56.084Z,17.20
2017-06-09T00:28:28.456Z,17.18
2017-06-09T00:31:01.196Z,17.20
2017-06-09T00:33:33.313Z,17.21
2017-06-09T00:36:05.603Z,17.15
2017-06-09T00:38:37.997Z,17.10
2017-06-09T00:41:10.488Z,17.01
2017-06-09T00:43:42.580Z,16.97
2017-06-09T00:46:14.943Z,16.87
2017-06-09T00:48:47.250Z,16.87
2017-06-09T00:51:19.880Z,16.80
2017-06-09T00:53:52.094Z,16.69
2017-06-09T00:56:24.467Z,16.63
2017-06-09T00:58:57.247Z,16.62
2017-06-09T01:01:29.235Z,16.61
2017-06-09T01:04:01.716Z,16.57
2017-06-09T01:06:34.325Z,16.59
2017-06-09T01:09:07.361Z,16.55
2017-06-09T01:11:39.763Z,16.50
2017-06-09T01:14:12.226Z,16.50
2017-06-09T01:16:44.599Z,16.46
2017-06-09T01:19:17.012Z,16.47
2017-06-09T01:21:49.492Z,16.43
2017-06-09T01:24:21.811Z,16.36
2017-06-09T01:26:54.133Z,16.43
2017-06-09T01:29:26.623Z,16.37
2017-06-09T01:31:58.947Z,16.40
2017-06-09T01:34:31.599Z,16.44
2017-06-09T01:37:03.936Z,16.47
2017-06-09T01:39:36.339Z,16.49
2017-06-09T01:42:08.887Z,16.53
2017-06-09T01:44:41.479Z,16.61
2017-06-09T01:47:13.652Z,16.67
2017-06-09T01:49:46.152Z,16.68
2017-06-09T01:52:18.540Z,16.71
2017-06-09T01:54:50.995Z,16.77
2017-06-09T01:57:23.279Z,16.81
2017-06-09T02:00:03.707Z,16.75
2017-06-09T02:02:36.046Z,16.75
2017-06-09T02:05:08.592Z,16.67
2017-06-09T02:07:40.873Z,16.63
2017-06-09T02:10:13.261Z,16.65
2017-06-09T02:12:45.752Z,16.62
2017-06-09T02:15:18.066Z,16.55
2017-06-09T02:17:50.434Z,16.52
2017-06-09T02:20:22.824Z,16.42
2017-06-09T02:22:55.463Z,16.34
2017-06-09T02:25:27.616Z,16.36
2017-06-09T02:27:59.954Z,16.36
2017-06-09T02:30:32.268Z,16.31
2017-06-09T02:33:04.570Z,16.27
2017-06-09T02:35:36.903Z,16.26
2017-06-09T02:38:10.332Z,16.26
2017-06-09T02:40:42.933Z,16.23
2017-06-09T02:43:15.275Z,16.22
2017-06-09T02:45:47.707Z,16.20
2017-06-09T02:48:20.030Z,16.20
2017-06-09T02:50:52.548Z,16.18
2017-06-09T02:53:24.887Z,16.16
2017-06-09T02:55:57.265Z,16.14
2017-06-09T02:58:29.583Z,16.10
2017-06-09T03:01:02.040Z,16.06
2017-06-09T03:03:34.556Z,15.98
2017-06-09T03:06:06.963Z,15.81
2017-06-09T03:08:39.427Z,15.72
2017-06-09T03:11:11.831Z,15.74
2017-06-09T03:13:44.176Z,15.63
2017-06-09T03:16:16.667Z,15.57
2017-06-09T03:18:49.056Z,15.57
2017-06-09T03:21:21.433Z,15.55
2017-06-09T03:23:53.784Z,15.61
2017-06-09T03:26:26.238Z,15.60
2017-06-09T03:28:58.580Z,15.55
2017-06-09T03:31:37.232Z,15.57
2017-06-09T03:34:09.311Z,15.58
2017-06-09T03:36:41.755Z,15.59
2017-06-09T03:39:14.121Z,15.63
2017-06-09T03:41:53.620Z,15.65
2017-06-09T03:44:26.905Z,15.73
2017-06-09T03:46:59.502Z,15.75
2017-06-09T03:49:31.889Z,15.88
2017-06-09T03:52:04.369Z,15.98
2017-06-09T03:54:36.900Z,16.07
2017-06-09T03:57:09.307Z,16.11
2017-06-09T03:59:41.751Z,16.15
2017-06-09T04:02:14.249Z,16.24
2017-06-09T04:04:46.637Z,16.31
2017-06-09T04:07:18.984Z,16.38
2017-06-09T04:09:51.462Z,16.56
2017-06-09T04:12:23.980Z,16.55
2017-06-09T04:14:56.308Z,16.59
2017-06-09T04:17:28.805Z,16.52
2017-06-09T04:20:01.178Z,16.47
2017-06-09T04:22:34.568Z,16.39
2017-06-09T04:25:07.104Z,16.40
2017-06-09T04:27:39.362Z,16.37
2017-06-09T04:30:11.627Z,16.25
2017-06-09T04:32:44.128Z,16.33
2017-06-09T04:35:16.537Z,16.23
2017-06-09T04:37:48.826Z,16.20
2017-06-09T04:40:21.151Z,16.24
2017-06-09T04:42:53.644Z,16.30
2017-06-09T04:45:26.134Z,16.46
2017-06-09T04:47:58.521Z,16.92
2017-06-09T04:50:30.771Z,17.71
2017-06-09T04:53:10.243Z,18.41
2017-06-09T04:55:42.873Z,19.61
2017-06-09T04:58:15.292Z,19.99
2017-06-09T05:00:47.911Z,20.76
2017-06-09T05:03:20.010Z,21.72
2017-06-09T05:05:52.355Z,22.23
2017-06-09T05:08:24.854Z,22.12
2017-06-09T05:10:57.220Z,22.23
2017-06-09T05:13:29.631Z,23.18
2017-06-09T05:16:02.105Z,23.23
2017-06-09T05:18:34.488Z,22.98
2017-06-09T05:21:09.895Z,23.14
2017-06-09T05:23:48.509Z,23.64
2017-06-09T05:26:21.011Z,24.57
2017-06-09T05:28:53.505Z,24.48
2017-06-09T05:31:25.958Z,24.40
2017-06-09T05:33:57.788Z,24.16
2017-06-09T05:36:30.292Z,24.27
2017-06-09T05:39:02.710Z,25.15
2017-06-09T05:41:34.991Z,25.93
2017-06-09T05:44:07.483Z,25.70
2017-06-09T05:46:39.879Z,24.85
2017-06-09T05:49:12.548Z,23.79
2017-06-09T05:51:44.691Z,23.49
2017-06-09T05:54:17.220Z,23.78
2017-06-09T05:56:49.616Z,23.33
2017-06-09T05:59:22.136Z,22.81
2017-06-09T06:01:54.547Z,22.60
2017-06-09T06:04:26.927Z,22.28
2017-06-09T06:06:59.323Z,22.23
2017-06-09T06:09:32.015Z,22.21
2017-06-09T06:12:04.085Z,22.66
2017-06-09T06:14:36.600Z,23.71
2017-06-09T06:17:08.942Z,25.03
2017-06-09T06:19:41.436Z,25.52
2017-06-09T06:22:13.851Z,25.92
2017-06-09T06:24:46.247Z,25.62
2017-06-09T06:27:18.556Z,25.18
2017-06-09T06:29:50.998Z,24.50
2017-06-09T06:32:23.404Z,24.09
2017-06-09T06:34:55.862Z,23.72
2017-06-09T06:37:28.281Z,23.36
2017-06-09T06:40:00.711Z,23.12
2017-06-09T06:42:33.037Z,23.33
2017-06-09T06:45:05.594Z,23.64
2017-06-09T06:47:37.903Z,23.45
2017-06-09T06:50:10.271Z,23.86
2017-06-09T06:52:42.749Z,24.53
2017-06-09T06:55:15.183Z,24.58
2017-06-09T06:57:47.631Z,24.27
2017-06-09T07:00:20.154Z,24.21
2017-06-09T07:02:52.507Z,23.92
2017-06-09T07:05:24.979Z,23.71
2017-06-09T07:07:57.422Z,23.73
2017-06-09T07:10:29.838Z,24.63
2017-06-09T07:13:02.272Z,25.72
2017-06-09T07:15:34.659Z,25.72
2017-06-09T07:18:07.158Z,25.18
2017-06-09T07:20:40.528Z,24.33
2017-06-09T07:23:12.975Z,23.73
2017-06-09T07:25:45.520Z,23.09
2017-06-09T07:28:17.847Z,22.69
2017-06-09T07:30:50.351Z,22.97
2017-06-09T07:33:22.653Z,24.14
2017-06-09T07:35:55.098Z,25.60
2017-06-09T07:38:27.448Z,26.48
2017-06-09T07:40:59.865Z,27.35
2017-06-09T07:43:32.311Z,27.63
2017-06-09T07:46:04.590Z,28.21
2017-06-09T07:48:37.087Z,29.52
2017-06-09T07:51:09.704Z,29.97
2017-06-09T07:53:41.941Z,29.05
2017-06-09T07:56:14.311Z,28.93
2017-06-09T07:58:46.827Z,28.93
2017-06-09T08:01:19.145Z,28.50
2017-06-09T08:03:51.746Z,27.47
2017-06-09T08:06:23.839Z,26.81
2017-06-09T08:08:56.281Z,26.48
2017-06-09T08:11:28.663Z,25.67
2017-06-09T08:14:01.128Z,25.38
2017-06-09T08:16:33.627Z,25.08
2017-06-09T08:19:05.998Z,25.03
2017-06-09T08:21:38.319Z,25.20
2017-06-09T08:24:10.787Z,25.27
2017-06-09T08:26:43.372Z,25.57
2017-06-09T08:29:15.741Z,25.73
2017-06-09T08:31:48.183Z,25.90
2017-06-09T08:34:20.598Z,25.80
2017-06-09T08:36:53.005Z,26.25
2017-06-09T08:39:25.344Z,26.89
2017-06-09T08:41:57.929Z,26.87
2017-06-09T08:44:30.319Z,26.80
2017-06-09T08:47:02.768Z,26.63
2017-06-09T08:49:35.071Z,26.59
2017-06-09T08:52:07.555Z,26.52
2017-06-09T08:54:39.877Z,26.80
2017-06-09T08:57:12.391Z,26.69
2017-06-09T08:59:44.711Z,26.63
2017-06-09T09:02:17.408Z,26.50
2017-06-09T09:04:49.367Z,26.34
2017-06-09T09:07:21.843Z,25.89
2017-06-09T09:09:54.298Z,26.05
2017-06-09T09:12:26.863Z,25.97
2017-06-09T09:14:59.208Z,25.97
2017-06-09T09:17:31.544Z,26.02
2017-06-09T09:20:03.912Z,25.84
2017-06-09T09:22:36.334Z,25.90
2017-06-09T09:25:08.699Z,25.82
2017-06-09T09:27:41.056Z,25.90
2017-06-09T09:30:13.472Z,25.98
2017-06-09T09:32:45.851Z,25.39
2017-06-09T09:35:18.244Z,25.38
2017-06-09T09:37:50.759Z,25.38
2017-06-09T09:40:23.236Z,25.32
2017-06-09T09:42:55.637Z,25.42
2017-06-09T09:45:28.003Z,25.40
2017-06-09T09:48:00.851Z,25.46
2017-06-09T09:50:32.839Z,25.54
2017-06-09T09:53:05.223Z,25.36
2017-06-09T09:55:37.563Z,25.46
2017-06-09T09:58:10.016Z,25.55
2017-06-09T10:00:42.349Z,25.44
2017-06-09T10:03:14.720Z,25.83
2017-06-09T10:05:47.176Z,25.72
2017-06-09T10:08:19.642Z,25.85
2017-06-09T10:10:52.082Z,26.09
2017-06-09T10:13:24.591Z,26.23
2017-06-09T10:15:57.083Z,26.25
2017-06-09T10:18:29.515Z,26.51
2017-06-09T10:21:01.827Z,26.29
2017-06-09T10:23:34.194Z,26.49
2017-06-09T10:26:06.563Z,26.59
2017-06-09T10:28:39.054Z,26.32
2017-06-09T10:31:11.395Z,26.13
2017-06-09T10:33:43.863Z,26.07
2017-06-09T10:36:16.101Z,25.89
2017-06-09T10:38:48.567Z,26.03
2017-06-09T10:41:20.887Z,25.65
2017-06-09T10:43:53.443Z,25.62
2017-06-09T10:46:25.738Z,25.12
2017-06-09T10:48:58.167Z,24.72
2017-06-09T10:51:30.552Z,24.72
2017-06-09T10:54:02.988Z,24.15
2017-06-09T10:56:35.431Z,24.12
2017-06-09T10:59:07.946Z,24.27
2017-06-09T11:01:40.384Z,24.15
2017-06-09T11:04:12.797Z,24.05
2017-06-09T11:06:45.150Z,24.20
2017-06-09T11:09:17.466Z,24.09
2017-06-09T11:11:49.868Z,23.83
2017-06-09T11:14:22.357Z,24.26
2017-06-09T11:16:54.707Z,24.54
2017-06-09T11:19:27.195Z,24.88
2017-06-09T11:21:59.662Z,25.02
2017-06-09T11:24:32.152Z,25.33
2017-06-09T11:27:04.404Z,25.48
2017-06-09T11:29:36.875Z,25.19
2017-06-09T11:32:09.339Z,24.81
2017-06-09T11:34:41.856Z,24.69
2017-06-09T11:37:14.272Z,24.93
2017-06-09T11:39:46.587Z,24.91
2017-06-09T11:42:19.007Z,24.40
2017-06-09T11:44:51.504Z,23.60
2017-06-09T11:47:23.875Z,23.48
2017-06-09T11:49:56.264Z,23.27
2017-06-09T11:52:28.606Z,23.18
2017-06-09T11:55:00.951Z,23.16
2017-06-09T11:57:33.311Z,22.75
2017-06-09T12:00:05.762Z,22.55
2017-06-09T12:02:37.998Z,21.83
2017-06-09T12:05:10.431Z,21.05
2017-06-09T12:07:42.878Z,20.16
2017-06-09T12:10:15.256Z,19.63
2017-06-09T12:12:47.615Z,18.97
2017-06-09T12:15:20.008Z,18.88
2017-06-09T12:17:52.643Z,18.28
2017-06-09T12:20:25.042Z,18.00
2017-06-09T12:22:57.421Z,17.87
2017-06-09T12:25:29.820Z,17.67
2017-06-09T12:28:02.107Z,17.58
2017-06-09T12:30:34.836Z,17.58
2017-06-09T12:33:07.095Z,17.37
2017-06-09T12:35:39.565Z,17.32
2017-06-09T12:38:11.799Z,17.11
2017-06-09T12:40:44.230Z,17.13
2017-06-09T12:43:16.587Z,17.11
2017-06-09T12:45:49.399Z,17.12
2017-06-09T12:48:21.463Z,17.10
2017-06-09T12:50:54.653Z,16.83
2017-06-09T12:53:27.027Z,16.74
2017-06-09T12:55:59.303Z,16.74
2017-06-09T12:58:31.611Z,16.93
2017-06-09T13:01:04.928Z,17.01
2017-06-09T13:03:37.280Z,17.07
2017-06-09T13:06:09.603Z,17.07
2017-06-09T13:08:41.974Z,17.13
2017-06-09T13:11:14.485Z,17.11
2017-06-09T13:13:47.012Z,17.19
2017-06-09T13:16:19.410Z,17.19
2017-06-09T13:18:51.746Z,17.15
2017-06-09T13:21:24.067Z,17.03
2017-06-09T13:23:56.491Z,16.97
2017-06-09T13:26:28.978Z,16.93
2017-06-09T13:29:01.432Z,16.97
2017-06-09T13:31:33.815Z,17.06
2017-06-09T13:34:06.083Z,17.00
2017-06-09T13:36:39.490Z,17.09
2017-06-09T13:39:21.786Z,17.24
2017-06-09T13:41:54.270Z,17.31
2017-06-09T13:44:26.543Z,17.19
2017-06-09T13:46:58.935Z,17.20
2017-06-09T13:49:31.368Z,17.26
2017-06-09T13:52:03.680Z,17.17
2017-06-09T13:54:36.132Z,17.24
2017-06-09T13:57:08.523Z,17.39
2017-06-09T13:59:41.015Z,17.38
2017-06-09T14:02:13.372Z,17.63
2017-06-09T14:04:45.767Z,17.77
2017-06-09T14:07:19.158Z,17.83
2017-06-09T14:09:51.578Z,17.99
2017-06-09T14:12:24.083Z,18.14
2017-06-09T14:14:56.444Z,18.41
2017-06-09T14:17:28.982Z,18.79
2017-06-09T14:20:01.399Z,18.98
2017-06-09T14:22:33.902Z,19.41
2017-06-09T14:25:06.302Z,19.45
2017-06-09T14:27:38.774Z,19.72
2017-06-09T14:30:11.239Z,19.58
2017-06-09T14:32:43.667Z,19.47
2017-06-09T14:35:16.166Z,19.46
2017-06-09T14:37:48.806Z,19.24
2017-06-09T14:40:21.094Z,19.32
2017-06-09T14:42:53.739Z,19.89
2017-06-09T14:45:26.171Z,20.43
2017-06-09T14:47:58.591Z,20.34
2017-06-09T14:50:31.002Z,20.59
2017-06-09T14:53:03.460Z,20.28
2017-06-09T14:55:35.775Z,20.32
2017-06-09T14:58:08.228Z,20.59
2017-06-09T15:00:40.520Z,20.50
2017-06-09T15:03:12.939Z,20.46
2017-06-09T15:05:45.324Z,20.69
2017-06-09T15:08:17.739Z,20.88
2017-06-09T15:10:50.079Z,21.15
2017-06-09T15:13:22.523Z,21.04
2017-06-09T15:15:54.931Z,21.38
2017-06-09T15:18:27.195Z,21.34
2017-06-09T15:20:59.609Z,20.90
2017-06-09T15:23:31.991Z,20.94
2017-06-09T15:26:04.280Z,20.61
2017-06-09T15:28:36.694Z,20.80
2017-06-09T15:31:09.096Z,21.05
2017-06-09T15:33:41.580Z,21.26
2017-06-09T15:36:14.122Z,21.41
2017-06-09T15:38:46.410Z,21.24
2017-06-09T15:41:19.314Z,21.20
2017-06-09T15:43:51.343Z,21.08
2017-06-09T15:46:23.711Z,21.18
2017-06-09T15:48:56.557Z,21.06
2017-06-09T15:51:28.430Z,20.89
2017-06-09T15:54:00.919Z,20.85
2017-06-09T15:56:33.298Z,20.52
2017-06-09T15:59:05.667Z,20.51
2017-06-09T16:01:38.063Z,20.50
2017-06-09T16:04:10.505Z,20.46
2017-06-09T16:06:42.895Z,20.38
2017-06-09T16:09:15.296Z,20.46
2017-06-09T16:11:47.619Z,20.29
2017-06-09T16:14:20.995Z,20.12
2017-06-09T16:16:53.359Z,19.71
2017-06-09T16:19:25.771Z,20.03
2017-06-09T16:21:58.223Z,20.12
2017-06-09T16:24:30.654Z,20.34
2017-06-09T16:27:03.047Z,20.37
2017-06-09T16:29:35.484Z,20.37
2017-06-09T16:32:07.863Z,20.54
2017-06-09T16:34:40.548Z,20.78
2017-06-09T16:37:12.932Z,20.89
2017-06-09T16:39:45.467Z,20.88
2017-06-09T16:42:17.787Z,20.78
2017-06-09T16:44:50.256Z,20.62
2017-06-09T16:47:22.660Z,20.69
2017-06-09T16:49:55.055Z,20.72
2017-06-09T16:52:27.508Z,20.68
2017-06-09T16:54:59.924Z,20.45
2017-06-09T16:57:32.460Z,20.61
2017-06-09T17:00:05.139Z,20.43
2017-06-09T17:02:37.567Z,20.36
2017-06-09T17:05:10.070Z,20.38
2017-06-09T17:07:42.531Z,20.37
2017-06-09T17:10:15.012Z,20.18
2017-06-09T17:12:47.305Z,20.17
2017-06-09T17:15:20.784Z,20.16
2017-06-09T17:17:53.144Z,20.19
2017-06-09T17:20:26.562Z,20.27
2017-06-09T17:22:58.875Z,20.09
2017-06-09T17:25:31.316Z,20.05
2017-06-09T17:28:03.755Z,20.09
2017-06-09T17:30:36.176Z,20.00
2017-06-09T17:33:08.559Z,20.01
2017-06-09T17:35:41.091Z,20.07
2017-06-09T17:38:13.436Z,19.97
2017-06-09T17:40:45.867Z,19.98
2017-06-09T17:43:18.238Z,19.84
2017-06-09T17:45:50.754Z,19.96
2017-06-09T17:48:23.503Z,19.92
2017-06-09T17:50:56.164Z,19.88
2017-06-09T17:53:28.790Z,19.87
2017-06-09T17:56:01.134Z,19.95
2017-06-09T17:58:33.535Z,19.93
2017-06-09T18:01:05.914Z,19.88
2017-06-09T18:03:38.127Z,19.86
2017-06-09T18:06:10.581Z,19.84
2017-06-09T18:08:43.471Z,19.95
2017-06-09T18:11:15.412Z,19.99
2017-06-09T18:13:47.771Z,20.04
2017-06-09T18:16:20.258Z,20.11
2017-06-09T18:18:52.579Z,20.17
2017-06-09T18:21:24.847Z,20.11
2017-06-09T18:23:57.165Z,20.08
2017-06-09T18:26:29.652Z,20.11
2017-06-09T18:29:02.060Z,20.02
2017-06-09T18:31:34.599Z,19.89
2017-06-09T18:34:07.378Z,19.79
2017-06-09T18:36:39.500Z,19.81
2017-06-09T18:39:11.884Z,19.69
2017-06-09T18:41:44.435Z,19.63
2017-06-09T18:44:16.765Z,19.75
2017-06-09T18:46:49.088Z,19.77
2017-06-09T18:49:21.606Z,19.67
2017-06-09T18:51:54.063Z,19.65
2017-06-09T18:54:26.472Z,19.60
2017-06-09T18:56:59.219Z,19.48
2017-06-09T18:59:31.230Z,19.47
2017-06-09T19:02:03.723Z,19.46
2017-06-09T19:04:36.023Z,19.34
2017-06-09T19:07:08.670Z,19.28
2017-06-09T19:09:40.854Z,19.13
2017-06-09T19:12:13.287Z,19.07
2017-06-09T19:14:45.638Z,18.96
2017-06-09T19:17:18.410Z,18.83
2017-06-09T19:19:50.606Z,18.77
2017-06-09T19:22:24.109Z,18.66
2017-06-09T19:24:56.531Z,18.59
2017-06-09T19:27:29.010Z,18.51
2017-06-09T19:30:01.308Z,18.39
2017-06-09T19:32:34.729Z,18.29
2017-06-09T19:35:07.179Z,18.17
2017-06-09T19:37:39.968Z,18.06
2017-06-09T19:40:12.107Z,17.94
2017-06-09T19:42:44.539Z,17.82
2017-06-09T19:45:16.827Z,17.73
2017-06-09T19:47:49.300Z,17.68
2017-06-09T19:50:21.769Z,17.56
2017-06-09T19:52:54.135Z,17.40
2017-06-09T19:55:26.578Z,17.30
2017-06-09T19:57:59.382Z,17.25
2017-06-09T20:00:31.592Z,17.18
2017-06-09T20:03:03.658Z,17.11
2017-06-09T20:05:36.870Z,17.01
2017-06-09T20:08:09.330Z,16.93
2017-06-09T20:10:41.662Z,16.80
2017-06-09T20:13:14.156Z,16.75
2017-06-09T20:15:46.396Z,16.70
2017-06-09T20:18:18.811Z,16.62
2017-06-09T20:20:51.175Z,16.49
2017-06-09T20:23:23.499Z,16.47
2017-06-09T20:25:56.517Z,16.41
2017-06-09T20:28:29.297Z,16.34
2017-06-09T20:31:01.735Z,16.28
2017-06-09T20:33:34.255Z,16.23
2017-06-09T20:36:06.599Z,16.17
2017-06-09T20:38:39.228Z,16.07
2017-06-09T20:41:11.671Z,16.00
2017-06-09T20:43:44.183Z,16.00
2017-06-09T20:46:16.535Z,15.95
2017-06-09T20:48:48.922Z,15.90
2017-06-09T20:51:21.467Z,15.84
2017-06-09T20:53:53.807Z,15.76
2017-06-09T20:56:26.219Z,15.76
2017-06-09T20:58:58.635Z,15.71
2017-06-09T21:01:31.003Z,15.66
2017-06-09T21:04:03.347Z,15.60
2017-06-09T21:06:35.702Z,15.53
2017-06-09T21:09:08.044Z,15.47
2017-06-09T21:11:40.395Z,15.43
2017-06-09T21:14:13.012Z,15.38
2017-06-09T21:16:45.037Z,15.31
2017-06-09T21:19:17.519Z,15.31
2017-06-09T21:21:49.859Z,15.39
2017-06-09T21:24:22.175Z,15.43
2017-06-09T21:26:54.587Z,15.46
2017-06-09T21:29:27.067Z,15.45
2017-06-09T21:31:59.368Z,15.47
2017-06-09T21:34:31.762Z,15.49
2017-06-09T21:37:04.932Z,15.48
2017-06-09T21:39:37.636Z,15.46
2017-06-09T21:42:09.887Z,15.44
2017-06-09T21:44:42.052Z,15.42
2017-06-09T21:47:14.475Z,15.36
2017-06-09T21:49:46.894Z,15.28
2017-06-09T21:52:19.392Z,15.18
2017-06-09T21:54:51.939Z,15.14
2017-06-09T21:57:23.943Z,15.09
2017-06-09T21:59:56.295Z,15.02
2017-06-09T22:02:28.833Z,14.98
2017-06-09T22:05:01.069Z,14.93
2017-06-09T22:07:33.360Z,14.93
2017-06-09T22:10:05.625Z,14.89
2017-06-09T22:12:39.455Z,14.84
2017-06-09T22:15:11.531Z,14.80
2017-06-09T22:17:43.763Z,14.75
2017-06-09T22:20:16.146Z,14.64
2017-06-09T22:22:48.455Z,14.44
2017-06-09T22:25:20.915Z,14.42
2017-06-09T22:27:53.366Z,14.38
2017-06-09T22:30:25.902Z,14.34
2017-06-09T22:32:58.196Z,14.30
2017-06-09T22:35:30.528Z,14.19
2017-06-09T22:38:03.001Z,14.16
2017-06-09T22:40:35.449Z,14.19
2017-06-09T22:43:07.819Z,14.22
2017-06-09T22:45:40.219Z,14.15
2017-06-09T22:48:12.504Z,14.09
2017-06-09T22:50:45.854Z,14.02
2017-06-09T22:53:18.278Z,14.03
2017-06-09T22:55:50.618Z,13.97
2017-06-09T22:58:23.085Z,13.90
2017-06-09T23:00:55.587Z,13.88
2017-06-09T23:03:27.948Z,13.84
2017-06-09T23:06:00.336Z,13.81
2017-06-09T23:08:32.739Z,13.74
2017-06-09T23:11:05.305Z,13.74
2017-06-09T23:13:38.276Z,13.71
2017-06-09T23:16:10.986Z,13.64
2017-06-09T23:18:43.488Z,13.64
2017-06-09T23:21:16.150Z,13.60
2017-06-09T23:23:48.482Z,13.61
2017-06-09T23:26:21.200Z,13.53
2017-06-09T23:28:54.457Z,13.53
2017-06-09T23:31:32.519Z,13.48
2017-06-09T23:34:04.915Z,13.52
2017-06-09T23:36:37.371Z,13.42
2017-06-09T23:39:09.651Z,13.37
2017-06-09T23:41:42.547Z,13.31
2017-06-09T23:44:21.508Z,13.32
2017-06-09T23:46:54.142Z,13.30
2017-06-09T23:49:26.534Z,13.24
2017-06-09T23:51:58.820Z,13.19
2017-06-09T23:54:31.274Z,13.16
2017-06-09T23:57:03.627Z,13.15
2017-06-09T23:59:36.035Z,13.08
